sensor_id;sensor_type;location;lat;lon;timestamp;temperature;humidity
21340;DHT22;10828;47.064;15.422;2023-04-06T00:00:58;2.60;99.90
21340;DHT22;10828;47.064;15.422;2023-04-06T00:03:29;2.60;99.90
21340;DHT22;10828;47.064;15.422;2023-04-06T00:05:58;2.50;99.90
21340;DHT22;10828;47.064;15.422;2023-04-06T00:08:27;2.50;99.90
21340;DHT22;10828;47.064;15.422;2023-04-06T00:10:54;2.50;99.90
21340;DHT22;10828;47.064;15.422;2023-04-06T00:13:20;2.50;99.90
21340;DHT22;10828;47.064;15.422;2023-04-06T00:15:47;2.60;99.90
21340;DHT22;10828;47.064;15.422;2023-04-06T00:18:13;2.70;99.90
21340;DHT22;10828;47.064;15.422;2023-04-06T00:20:40;2.60;99.90
21340;DHT22;10828;47.064;15.422;2023-04-06T00:23:06;2.60;99.90
21340;DHT22;10828;47.064;15.422;2023-04-06T00:25:33;2.50;99.90
21340;DHT22;10828;47.064;15.422;2023-04-06T00:27:58;2.40;99.90
21340;DHT22;10828;47.064;15.422;2023-04-06T00:30:25;2.40;99.90
21340;DHT22;10828;47.064;15.422;2023-04-06T00:32:53;2.20;99.90
21340;DHT22;10828;47.064;15.422;2023-04-06T00:35:18;2.20;99.90
21340;DHT22;10828;47.064;15.422;2023-04-06T00:37:46;2.10;99.90
21340;DHT22;10828;47.064;15.422;2023-04-06T00:40:14;2.10;99.90
21340;DHT22;10828;47.064;15.422;2023-04-06T00:42:41;2.00;99.90
21340;DHT22;10828;47.064;15.422;2023-04-06T00:45:14;1.90;99.90
21340;DHT22;10828;47.064;15.422;2023-04-06T00:47:41;1.90;99.90
21340;DHT22;10828;47.064;15.422;2023-04-06T00:50:08;1.90;99.90
21340;DHT22;10828;47.064;15.422;2023-04-06T00:52:34;1.80;99.90
21340;DHT22;10828;47.064;15.422;2023-04-06T00:55:03;1.90;99.90
21340;DHT22;10828;47.064;15.422;2023-04-06T00:57:36;1.80;99.90
21340;DHT22;10828;47.064;15.422;2023-04-06T01:00:02;1.90;99.90
21340;DHT22;10828;47.064;15.422;2023-04-06T01:02:28;1.80;99.90
21340;DHT22;10828;47.064;15.422;2023-04-06T01:04:54;1.80;99.90
21340;DHT22;10828;47.064;15.422;2023-04-06T01:07:25;1.70;99.90
21340;DHT22;10828;47.064;15.422;2023-04-06T01:09:53;1.70;99.90
21340;DHT22;10828;47.064;15.422;2023-04-06T01:12:20;1.70;99.90
21340;DHT22;10828;47.064;15.422;2023-04-06T01:14:47;1.80;99.90
21340;DHT22;10828;47.064;15.422;2023-04-06T01:17:12;1.70;99.90
21340;DHT22;10828;47.064;15.422;2023-04-06T01:19:41;1.70;99.90
21340;DHT22;10828;47.064;15.422;2023-04-06T01:22:15;1.70;99.90
21340;DHT22;10828;47.064;15.422;2023-04-06T01:24:48;1.70;99.90
21340;DHT22;10828;47.064;15.422;2023-04-06T01:27:14;1.80;99.90
21340;DHT22;10828;47.064;15.422;2023-04-06T01:29:41;1.80;99.90
21340;DHT22;10828;47.064;15.422;2023-04-06T01:32:07;1.80;99.90
21340;DHT22;10828;47.064;15.422;2023-04-06T01:34:35;1.70;99.90
21340;DHT22;10828;47.064;15.422;2023-04-06T01:37:01;1.70;99.90
21340;DHT22;10828;47.064;15.422;2023-04-06T01:39:33;1.60;99.90
21340;DHT22;10828;47.064;15.422;2023-04-06T01:41:59;1.50;99.90
21340;DHT22;10828;47.064;15.422;2023-04-06T01:44:37;1.50;99.90
21340;DHT22;10828;47.064;15.422;2023-04-06T01:47:03;1.60;99.90
21340;DHT22;10828;47.064;15.422;2023-04-06T01:49:29;1.60;99.90
21340;DHT22;10828;47.064;15.422;2023-04-06T01:51:56;1.60;99.90
21340;DHT22;10828;47.064;15.422;2023-04-06T01:54:28;1.60;99.90
21340;DHT22;10828;47.064;15.422;2023-04-06T01:56:57;1.80;99.90
21340;DHT22;10828;47.064;15.422;2023-04-06T01:59:25;1.80;99.90
21340;DHT22;10828;47.064;15.422;2023-04-06T02:01:51;1.70;99.90
21340;DHT22;10828;47.064;15.422;2023-04-06T02:04:17;1.60;99.90
21340;DHT22;10828;47.064;15.422;2023-04-06T02:06:45;1.60;99.90
21340;DHT22;10828;47.064;15.422;2023-04-06T02:09:11;1.50;99.90
21340;DHT22;10828;47.064;15.422;2023-04-06T02:11:38;1.50;99.90
21340;DHT22;10828;47.064;15.422;2023-04-06T02:14:05;1.60;99.90
21340;DHT22;10828;47.064;15.422;2023-04-06T02:16:31;1.60;99.90
21340;DHT22;10828;47.064;15.422;2023-04-06T02:18:57;1.70;99.90
21340;DHT22;10828;47.064;15.422;2023-04-06T02:21:23;1.70;99.90
21340;DHT22;10828;47.064;15.422;2023-04-06T02:23:49;1.80;99.90
21340;DHT22;10828;47.064;15.422;2023-04-06T02:26:15;1.70;99.90
21340;DHT22;10828;47.064;15.422;2023-04-06T02:28:41;1.60;99.90
21340;DHT22;10828;47.064;15.422;2023-04-06T02:31:08;1.60;99.90
21340;DHT22;10828;47.064;15.422;2023-04-06T02:33:34;1.60;99.90
21340;DHT22;10828;47.064;15.422;2023-04-06T02:36:00;1.70;99.90
21340;DHT22;10828;47.064;15.422;2023-04-06T02:38:31;1.70;99.90
21340;DHT22;10828;47.064;15.422;2023-04-06T02:40:59;1.70;99.90
21340;DHT22;10828;47.064;15.422;2023-04-06T02:43:24;1.60;99.90
21340;DHT22;10828;47.064;15.422;2023-04-06T02:45:50;1.50;99.90
21340;DHT22;10828;47.064;15.422;2023-04-06T02:48:18;1.40;99.90
21340;DHT22;10828;47.064;15.422;2023-04-06T02:50:43;1.30;99.90
21340;DHT22;10828;47.064;15.422;2023-04-06T02:53:10;1.20;99.90
21340;DHT22;10828;47.064;15.422;2023-04-06T02:55:36;1.10;99.90
21340;DHT22;10828;47.064;15.422;2023-04-06T02:58:05;1.10;99.90
21340;DHT22;10828;47.064;15.422;2023-04-06T03:00:31;1.10;99.90
21340;DHT22;10828;47.064;15.422;2023-04-06T03:02:56;1.10;99.90
21340;DHT22;10828;47.064;15.422;2023-04-06T03:05:22;1.10;99.90
21340;DHT22;10828;47.064;15.422;2023-04-06T03:07:48;1.10;99.90
21340;DHT22;10828;47.064;15.422;2023-04-06T03:10:13;1.00;99.90
21340;DHT22;10828;47.064;15.422;2023-04-06T03:12:42;1.00;99.90
21340;DHT22;10828;47.064;15.422;2023-04-06T03:15:09;1.00;99.90
21340;DHT22;10828;47.064;15.422;2023-04-06T03:17:37;0.90;99.90
21340;DHT22;10828;47.064;15.422;2023-04-06T03:20:03;0.90;99.90
21340;DHT22;10828;47.064;15.422;2023-04-06T03:22:29;0.90;99.90
21340;DHT22;10828;47.064;15.422;2023-04-06T03:24:55;0.90;99.90
21340;DHT22;10828;47.064;15.422;2023-04-06T03:27:20;0.90;99.90
21340;DHT22;10828;47.064;15.422;2023-04-06T03:29:46;1.00;99.90
21340;DHT22;10828;47.064;15.422;2023-04-06T03:32:13;1.00;99.90
21340;DHT22;10828;47.064;15.422;2023-04-06T03:34:39;1.00;99.90
21340;DHT22;10828;47.064;15.422;2023-04-06T03:37:07;1.00;99.90
21340;DHT22;10828;47.064;15.422;2023-04-06T03:39:34;1.00;99.90
21340;DHT22;10828;47.064;15.422;2023-04-06T03:42:07;0.90;99.90
21340;DHT22;10828;47.064;15.422;2023-04-06T03:44:32;0.90;99.90
21340;DHT22;10828;47.064;15.422;2023-04-06T03:46:59;0.90;99.90
21340;DHT22;10828;47.064;15.422;2023-04-06T03:49:26;0.80;99.90
21340;DHT22;10828;47.064;15.422;2023-04-06T03:51:52;0.80;99.90
21340;DHT22;10828;47.064;15.422;2023-04-06T03:54:20;0.90;99.90
21340;DHT22;10828;47.064;15.422;2023-04-06T03:56:47;0.90;99.90
21340;DHT22;10828;47.064;15.422;2023-04-06T03:59:12;0.80;99.90
21340;DHT22;10828;47.064;15.422;2023-04-06T04:01:38;0.70;99.90
21340;DHT22;10828;47.064;15.422;2023-04-06T04:04:05;0.70;99.90
21340;DHT22;10828;47.064;15.422;2023-04-06T04:06:33;0.80;99.90
21340;DHT22;10828;47.064;15.422;2023-04-06T04:09:07;0.90;99.90
21340;DHT22;10828;47.064;15.422;2023-04-06T04:11:33;0.90;99.90
21340;DHT22;10828;47.064;15.422;2023-04-06T04:13:59;0.90;99.90
21340;DHT22;10828;47.064;15.422;2023-04-06T04:16:26;0.80;99.90
21340;DHT22;10828;47.064;15.422;2023-04-06T04:18:53;0.80;99.90
21340;DHT22;10828;47.064;15.422;2023-04-06T04:21:20;0.90;99.90
21340;DHT22;10828;47.064;15.422;2023-04-06T04:23:46;0.80;99.90
21340;DHT22;10828;47.064;15.422;2023-04-06T04:26:12;0.80;99.90
21340;DHT22;10828;47.064;15.422;2023-04-06T04:28:39;0.80;99.90
21340;DHT22;10828;47.064;15.422;2023-04-06T04:31:10;0.90;99.90
21340;DHT22;10828;47.064;15.422;2023-04-06T04:33:38;0.90;99.90
21340;DHT22;10828;47.064;15.422;2023-04-06T04:36:04;0.80;99.90
21340;DHT22;10828;47.064;15.422;2023-04-06T04:38:34;0.90;99.90
21340;DHT22;10828;47.064;15.422;2023-04-06T04:41:01;0.80;99.90
21340;DHT22;10828;47.064;15.422;2023-04-06T04:43:27;0.90;99.90
21340;DHT22;10828;47.064;15.422;2023-04-06T04:45:52;0.90;99.90
21340;DHT22;10828;47.064;15.422;2023-04-06T04:48:24;0.90;99.90
21340;DHT22;10828;47.064;15.422;2023-04-06T04:50:50;0.90;99.90
21340;DHT22;10828;47.064;15.422;2023-04-06T04:53:16;0.90;99.90
21340;DHT22;10828;47.064;15.422;2023-04-06T04:55:45;0.90;99.90
21340;DHT22;10828;47.064;15.422;2023-04-06T04:58:17;0.90;99.90
21340;DHT22;10828;47.064;15.422;2023-04-06T05:00:47;1.10;99.90
21340;DHT22;10828;47.064;15.422;2023-04-06T05:03:21;1.10;99.90
21340;DHT22;10828;47.064;15.422;2023-04-06T05:05:54;1.10;99.90
21340;DHT22;10828;47.064;15.422;2023-04-06T05:08:20;1.20;99.90
21340;DHT22;10828;47.064;15.422;2023-04-06T05:10:46;1.20;99.90
21340;DHT22;10828;47.064;15.422;2023-04-06T05:13:14;1.20;99.90
21340;DHT22;10828;47.064;15.422;2023-04-06T05:15:46;1.20;99.90
21340;DHT22;10828;47.064;15.422;2023-04-06T05:18:12;1.20;99.90
21340;DHT22;10828;47.064;15.422;2023-04-06T05:20:39;1.20;99.90
21340;DHT22;10828;47.064;15.422;2023-04-06T05:23:04;1.30;99.90
21340;DHT22;10828;47.064;15.422;2023-04-06T05:25:31;1.30;99.90
21340;DHT22;10828;47.064;15.422;2023-04-06T05:27:58;1.30;99.90
21340;DHT22;10828;47.064;15.422;2023-04-06T05:30:25;1.30;99.90
21340;DHT22;10828;47.064;15.422;2023-04-06T05:33:00;1.50;99.90
21340;DHT22;10828;47.064;15.422;2023-04-06T05:35:27;1.50;99.90
21340;DHT22;10828;47.064;15.422;2023-04-06T05:37:54;1.50;99.90
21340;DHT22;10828;47.064;15.422;2023-04-06T05:40:20;1.50;99.90
21340;DHT22;10828;47.064;15.422;2023-04-06T05:42:46;1.50;99.90
21340;DHT22;10828;47.064;15.422;2023-04-06T05:45:12;1.50;99.90
21340;DHT22;10828;47.064;15.422;2023-04-06T05:47:42;1.50;99.90
21340;DHT22;10828;47.064;15.422;2023-04-06T05:50:11;1.70;99.90
21340;DHT22;10828;47.064;15.422;2023-04-06T05:52:37;1.80;99.90
21340;DHT22;10828;47.064;15.422;2023-04-06T05:55:07;1.90;99.90
21340;DHT22;10828;47.064;15.422;2023-04-06T05:57:43;1.90;99.90
21340;DHT22;10828;47.064;15.422;2023-04-06T06:00:09;2.00;99.90
21340;DHT22;10828;47.064;15.422;2023-04-06T06:02:42;1.90;99.90
21340;DHT22;10828;47.064;15.422;2023-04-06T06:05:08;2.00;99.90
21340;DHT22;10828;47.064;15.422;2023-04-06T06:07:35;2.10;99.90
21340;DHT22;10828;47.064;15.422;2023-04-06T06:10:03;2.10;99.90
21340;DHT22;10828;47.064;15.422;2023-04-06T06:12:28;2.30;99.90
21340;DHT22;10828;47.064;15.422;2023-04-06T06:15:01;2.30;99.90
21340;DHT22;10828;47.064;15.422;2023-04-06T06:17:28;2.30;99.90
21340;DHT22;10828;47.064;15.422;2023-04-06T06:19:56;2.30;99.90
21340;DHT22;10828;47.064;15.422;2023-04-06T06:22:28;2.20;99.90
21340;DHT22;10828;47.064;15.422;2023-04-06T06:24:54;2.30;99.90
21340;DHT22;10828;47.064;15.422;2023-04-06T06:27:21;2.30;99.90
21340;DHT22;10828;47.064;15.422;2023-04-06T06:29:48;2.40;99.90
21340;DHT22;10828;47.064;15.422;2023-04-06T06:32:14;2.50;99.90
21340;DHT22;10828;47.064;15.422;2023-04-06T06:34:40;2.60;99.90
21340;DHT22;10828;47.064;15.422;2023-04-06T06:37:06;2.60;99.90
21340;DHT22;10828;47.064;15.422;2023-04-06T06:39:32;2.70;99.90
21340;DHT22;10828;47.064;15.422;2023-04-06T06:42:02;2.70;99.90
21340;DHT22;10828;47.064;15.422;2023-04-06T06:44:32;2.90;99.90
21340;DHT22;10828;47.064;15.422;2023-04-06T06:47:00;3.00;99.90
21340;DHT22;10828;47.064;15.422;2023-04-06T06:49:26;3.20;99.90
21340;DHT22;10828;47.064;15.422;2023-04-06T06:51:52;3.30;99.90
21340;DHT22;10828;47.064;15.422;2023-04-06T06:54:17;3.30;99.90
21340;DHT22;10828;47.064;15.422;2023-04-06T06:56:44;3.30;99.90
21340;DHT22;10828;47.064;15.422;2023-04-06T06:59:20;3.30;99.90
21340;DHT22;10828;47.064;15.422;2023-04-06T07:01:46;3.30;99.90
21340;DHT22;10828;47.064;15.422;2023-04-06T07:04:12;3.40;99.90
21340;DHT22;10828;47.064;15.422;2023-04-06T07:06:38;3.40;99.90
21340;DHT22;10828;47.064;15.422;2023-04-06T07:09:05;3.40;99.90
21340;DHT22;10828;47.064;15.422;2023-04-06T07:11:30;3.50;99.90
21340;DHT22;10828;47.064;15.422;2023-04-06T07:14:02;3.60;99.90
21340;DHT22;10828;47.064;15.422;2023-04-06T07:16:28;3.70;99.90
21340;DHT22;10828;47.064;15.422;2023-04-06T07:18:54;3.70;99.90
21340;DHT22;10828;47.064;15.422;2023-04-06T07:21:19;3.80;99.90
21340;DHT22;10828;47.064;15.422;2023-04-06T07:23:45;3.70;99.90
21340;DHT22;10828;47.064;15.422;2023-04-06T07:26:13;3.70;99.90
21340;DHT22;10828;47.064;15.422;2023-04-06T07:28:39;3.80;99.90
21340;DHT22;10828;47.064;15.422;2023-04-06T07:31:05;4.00;99.90
21340;DHT22;10828;47.064;15.422;2023-04-06T07:33:32;4.10;99.90
21340;DHT22;10828;47.064;15.422;2023-04-06T07:35:59;4.20;99.90
21340;DHT22;10828;47.064;15.422;2023-04-06T07:38:26;4.30;99.90
21340;DHT22;10828;47.064;15.422;2023-04-06T07:40:56;4.30;99.90
21340;DHT22;10828;47.064;15.422;2023-04-06T07:43:24;4.30;99.90
21340;DHT22;10828;47.064;15.422;2023-04-06T07:45:51;4.30;99.90
21340;DHT22;10828;47.064;15.422;2023-04-06T07:48:17;4.40;99.90
21340;DHT22;10828;47.064;15.422;2023-04-06T07:50:44;4.50;99.90
21340;DHT22;10828;47.064;15.422;2023-04-06T07:53:10;4.60;99.90
21340;DHT22;10828;47.064;15.422;2023-04-06T07:55:37;4.80;99.90
21340;DHT22;10828;47.064;15.422;2023-04-06T07:58:02;4.90;99.90
21340;DHT22;10828;47.064;15.422;2023-04-06T08:00:29;4.90;99.90
21340;DHT22;10828;47.064;15.422;2023-04-06T08:02:56;4.90;99.90
21340;DHT22;10828;47.064;15.422;2023-04-06T08:05:21;5.00;99.90
21340;DHT22;10828;47.064;15.422;2023-04-06T08:07:49;5.10;99.90
21340;DHT22;10828;47.064;15.422;2023-04-06T08:10:16;5.20;99.90
21340;DHT22;10828;47.064;15.422;2023-04-06T08:12:49;5.30;99.90
21340;DHT22;10828;47.064;15.422;2023-04-06T08:15:15;5.50;99.90
21340;DHT22;10828;47.064;15.422;2023-04-06T08:17:40;5.70;99.90
21340;DHT22;10828;47.064;15.422;2023-04-06T08:20:07;5.70;99.90
21340;DHT22;10828;47.064;15.422;2023-04-06T08:22:33;5.80;99.90
21340;DHT22;10828;47.064;15.422;2023-04-06T08:24:59;5.80;99.90
21340;DHT22;10828;47.064;15.422;2023-04-06T08:27:26;5.90;99.90
21340;DHT22;10828;47.064;15.422;2023-04-06T08:29:52;6.20;99.90
21340;DHT22;10828;47.064;15.422;2023-04-06T08:32:18;6.40;99.90
21340;DHT22;10828;47.064;15.422;2023-04-06T08:34:45;6.40;98.60
21340;DHT22;10828;47.064;15.422;2023-04-06T08:37:18;6.60;98.60
21340;DHT22;10828;47.064;15.422;2023-04-06T08:39:45;6.80;98.00
21340;DHT22;10828;47.064;15.422;2023-04-06T08:42:25;7.00;97.50
21340;DHT22;10828;47.064;15.422;2023-04-06T08:44:55;7.00;96.90
21340;DHT22;10828;47.064;15.422;2023-04-06T08:47:21;7.10;97.00
21340;DHT22;10828;47.064;15.422;2023-04-06T08:49:49;7.20;96.50
21340;DHT22;10828;47.064;15.422;2023-04-06T08:52:25;7.40;96.00
21340;DHT22;10828;47.064;15.422;2023-04-06T08:54:53;7.70;95.40
21340;DHT22;10828;47.064;15.422;2023-04-06T08:57:20;7.80;94.90
21340;DHT22;10828;47.064;15.422;2023-04-06T08:59:47;7.90;94.80
21340;DHT22;10828;47.064;15.422;2023-04-06T09:02:19;8.10;94.70
21340;DHT22;10828;47.064;15.422;2023-04-06T09:04:53;8.20;94.70
21340;DHT22;10828;47.064;15.422;2023-04-06T09:07:22;8.30;94.40
21340;DHT22;10828;47.064;15.422;2023-04-06T09:09:51;8.50;94.30
21340;DHT22;10828;47.064;15.422;2023-04-06T09:12:32;8.70;93.70
21340;DHT22;10828;47.064;15.422;2023-04-06T09:15:00;8.90;93.30
21340;DHT22;10828;47.064;15.422;2023-04-06T09:17:33;9.10;93.00
21340;DHT22;10828;47.064;15.422;2023-04-06T09:20:03;9.20;92.90
21340;DHT22;10828;47.064;15.422;2023-04-06T09:22:39;9.40;92.90
21340;DHT22;10828;47.064;15.422;2023-04-06T09:25:08;9.60;92.80
21340;DHT22;10828;47.064;15.422;2023-04-06T09:27:38;9.60;92.50
21340;DHT22;10828;47.064;15.422;2023-04-06T09:30:18;9.60;92.20
21340;DHT22;10828;47.064;15.422;2023-04-06T09:32:47;9.80;92.10
21340;DHT22;10828;47.064;15.422;2023-04-06T09:35:13;9.70;92.10
21340;DHT22;10828;47.064;15.422;2023-04-06T09:37:39;9.80;91.90
21340;DHT22;10828;47.064;15.422;2023-04-06T09:40:06;10.00;91.60
21340;DHT22;10828;47.064;15.422;2023-04-06T09:42:33;10.10;91.70
21340;DHT22;10828;47.064;15.422;2023-04-06T09:45:09;10.40;91.50
21340;DHT22;10828;47.064;15.422;2023-04-06T09:47:36;10.60;91.00
21340;DHT22;10828;47.064;15.422;2023-04-06T09:50:05;10.70;90.90
21340;DHT22;10828;47.064;15.422;2023-04-06T09:52:37;10.90;90.80
21340;DHT22;10828;47.064;15.422;2023-04-06T09:55:05;11.20;90.50
21340;DHT22;10828;47.064;15.422;2023-04-06T09:57:52;11.40;90.00
21340;DHT22;10828;47.064;15.422;2023-04-06T10:00:22;11.40;89.90
21340;DHT22;10828;47.064;15.422;2023-04-06T10:05:43;11.50;88.60
21340;DHT22;10828;47.064;15.422;2023-04-06T10:08:14;11.40;87.80
21340;DHT22;10828;47.064;15.422;2023-04-06T10:10:42;11.40;88.60
21340;DHT22;10828;47.064;15.422;2023-04-06T10:13:15;11.60;88.90
21340;DHT22;10828;47.064;15.422;2023-04-06T10:15:51;11.60;88.70
21340;DHT22;10828;47.064;15.422;2023-04-06T10:18:17;11.60;88.00
21340;DHT22;10828;47.064;15.422;2023-04-06T10:23:51;11.80;87.70
21340;DHT22;10828;47.064;15.422;2023-04-06T10:26:22;12.00;88.50
21340;DHT22;10828;47.064;15.422;2023-04-06T10:28:49;12.20;86.80
21340;DHT22;10828;47.064;15.422;2023-04-06T10:31:27;12.50;87.00
21340;DHT22;10828;47.064;15.422;2023-04-06T10:34:01;12.70;86.10
21340;DHT22;10828;47.064;15.422;2023-04-06T10:36:32;12.80;84.70
21340;DHT22;10828;47.064;15.422;2023-04-06T10:38:59;12.70;85.60
21340;DHT22;10828;47.064;15.422;2023-04-06T10:41:40;11.90;84.60
21340;DHT22;10828;47.064;15.422;2023-04-06T10:44:16;11.60;85.20
21340;DHT22;10828;47.064;15.422;2023-04-06T10:46:55;11.30;85.30
21340;DHT22;10828;47.064;15.422;2023-04-06T10:49:25;11.90;86.90
21340;DHT22;10828;47.064;15.422;2023-04-06T10:51:55;12.30;85.10
21340;DHT22;10828;47.064;15.422;2023-04-06T10:54:26;12.70;84.40
21340;DHT22;10828;47.064;15.422;2023-04-06T10:56:58;13.00;84.70
21340;DHT22;10828;47.064;15.422;2023-04-06T10:59:29;13.20;81.50
21340;DHT22;10828;47.064;15.422;2023-04-06T11:01:55;12.80;83.30
21340;DHT22;10828;47.064;15.422;2023-04-06T11:04:21;12.60;82.90
21340;DHT22;10828;47.064;15.422;2023-04-06T11:06:48;12.40;82.90
21340;DHT22;10828;47.064;15.422;2023-04-06T11:09:26;12.60;84.10
21340;DHT22;10828;47.064;15.422;2023-04-06T11:11:56;13.10;81.90
21340;DHT22;10828;47.064;15.422;2023-04-06T11:14:23;13.40;81.50
21340;DHT22;10828;47.064;15.422;2023-04-06T11:16:51;13.80;81.50
21340;DHT22;10828;47.064;15.422;2023-04-06T11:19:17;14.10;81.40
21340;DHT22;10828;47.064;15.422;2023-04-06T11:21:47;14.70;81.60
21340;DHT22;10828;47.064;15.422;2023-04-06T11:24:18;15.10;78.90
21340;DHT22;10828;47.064;15.422;2023-04-06T11:26:50;15.30;78.20
21340;DHT22;10828;47.064;15.422;2023-04-06T11:29:25;15.40;77.40
21340;DHT22;10828;47.064;15.422;2023-04-06T11:32:04;14.80;77.50
21340;DHT22;10828;47.064;15.422;2023-04-06T11:34:37;14.30;77.80
21340;DHT22;10828;47.064;15.422;2023-04-06T11:37:11;14.40;77.80
21340;DHT22;10828;47.064;15.422;2023-04-06T11:39:51;14.50;77.30
21340;DHT22;10828;47.064;15.422;2023-04-06T11:42:30;14.60;76.30
21340;DHT22;10828;47.064;15.422;2023-04-06T11:45:07;14.30;78.20
21340;DHT22;10828;47.064;15.422;2023-04-06T11:47:36;15.00;78.00
21340;DHT22;10828;47.064;15.422;2023-04-06T11:50:12;15.20;76.80
21340;DHT22;10828;47.064;15.422;2023-04-06T11:52:39;15.10;76.90
21340;DHT22;10828;47.064;15.422;2023-04-06T11:55:17;15.40;75.50
21340;DHT22;10828;47.064;15.422;2023-04-06T11:57:44;15.30;75.80
21340;DHT22;10828;47.064;15.422;2023-04-06T12:00:21;15.30;74.90
21340;DHT22;10828;47.064;15.422;2023-04-06T12:02:51;15.30;73.40
21340;DHT22;10828;47.064;15.422;2023-04-06T12:05:17;15.70;74.90
21340;DHT22;10828;47.064;15.422;2023-04-06T12:07:44;15.90;73.40
21340;DHT22;10828;47.064;15.422;2023-04-06T12:10:17;15.70;74.50
21340;DHT22;10828;47.064;15.422;2023-04-06T12:12:49;15.90;74.50
21340;DHT22;10828;47.064;15.422;2023-04-06T12:15:16;16.50;71.40
21340;DHT22;10828;47.064;15.422;2023-04-06T12:17:46;16.30;71.40
21340;DHT22;10828;47.064;15.422;2023-04-06T12:20:12;16.30;71.30
21340;DHT22;10828;47.064;15.422;2023-04-06T12:22:42;16.30;71.00
21340;DHT22;10828;47.064;15.422;2023-04-06T12:25:08;16.00;72.40
21340;DHT22;10828;47.064;15.422;2023-04-06T12:27:34;16.10;72.90
21340;DHT22;10828;47.064;15.422;2023-04-06T12:30:01;15.60;71.50
21340;DHT22;10828;47.064;15.422;2023-04-06T12:32:27;15.10;73.20
21340;DHT22;10828;47.064;15.422;2023-04-06T12:34:56;15.30;71.40
21340;DHT22;10828;47.064;15.422;2023-04-06T12:37:22;16.00;73.00
21340;DHT22;10828;47.064;15.422;2023-04-06T12:39:49;16.70;69.00
21340;DHT22;10828;47.064;15.422;2023-04-06T12:42:16;17.00;68.90
21340;DHT22;10828;47.064;15.422;2023-04-06T12:44:42;17.30;68.40
21340;DHT22;10828;47.064;15.422;2023-04-06T12:47:08;17.40;68.80
21340;DHT22;10828;47.064;15.422;2023-04-06T12:49:37;17.40;68.40
21340;DHT22;10828;47.064;15.422;2023-04-06T12:52:04;17.30;68.00
21340;DHT22;10828;47.064;15.422;2023-04-06T12:54:30;17.40;68.50
21340;DHT22;10828;47.064;15.422;2023-04-06T12:56:55;17.10;68.00
21340;DHT22;10828;47.064;15.422;2023-04-06T12:59:22;17.40;69.10
21340;DHT22;10828;47.064;15.422;2023-04-06T13:01:50;17.70;68.20
21340;DHT22;10828;47.064;15.422;2023-04-06T13:04:16;17.80;65.80
21340;DHT22;10828;47.064;15.422;2023-04-06T13:06:42;17.60;67.20
21340;DHT22;10828;47.064;15.422;2023-04-06T13:09:07;17.40;67.40
21340;DHT22;10828;47.064;15.422;2023-04-06T13:11:36;17.60;67.20
21340;DHT22;10828;47.064;15.422;2023-04-06T13:14:02;17.10;67.20
21340;DHT22;10828;47.064;15.422;2023-04-06T13:16:33;17.00;67.40
21340;DHT22;10828;47.064;15.422;2023-04-06T13:19:00;16.90;67.20
21340;DHT22;10828;47.064;15.422;2023-04-06T13:21:26;17.70;67.30
21340;DHT22;10828;47.064;15.422;2023-04-06T13:23:53;18.20;66.20
21340;DHT22;10828;47.064;15.422;2023-04-06T13:26:20;18.30;64.90
21340;DHT22;10828;47.064;15.422;2023-04-06T13:28:46;18.40;64.90
21340;DHT22;10828;47.064;15.422;2023-04-06T13:31:12;18.70;63.80
21340;DHT22;10828;47.064;15.422;2023-04-06T13:33:40;18.60;63.60
21340;DHT22;10828;47.064;15.422;2023-04-06T13:36:07;17.70;63.40
21340;DHT22;10828;47.064;15.422;2023-04-06T13:38:33;17.90;63.80
21340;DHT22;10828;47.064;15.422;2023-04-06T13:40:59;18.00;63.50
21340;DHT22;10828;47.064;15.422;2023-04-06T13:43:27;17.70;63.60
21340;DHT22;10828;47.064;15.422;2023-04-06T13:45:56;17.70;63.60
21340;DHT22;10828;47.064;15.422;2023-04-06T13:48:25;17.70;64.70
21340;DHT22;10828;47.064;15.422;2023-04-06T13:50:52;17.70;64.70
21340;DHT22;10828;47.064;15.422;2023-04-06T13:53:24;17.80;64.00
21340;DHT22;10828;47.064;15.422;2023-04-06T13:55:54;18.10;63.40
21340;DHT22;10828;47.064;15.422;2023-04-06T13:58:23;17.80;63.60
21340;DHT22;10828;47.064;15.422;2023-04-06T14:00:50;18.10;64.50
21340;DHT22;10828;47.064;15.422;2023-04-06T14:03:18;18.60;63.30
21340;DHT22;10828;47.064;15.422;2023-04-06T14:05:45;18.10;62.60
21340;DHT22;10828;47.064;15.422;2023-04-06T14:08:10;17.60;63.30
21340;DHT22;10828;47.064;15.422;2023-04-06T14:10:40;17.00;63.70
21340;DHT22;10828;47.064;15.422;2023-04-06T14:13:08;16.70;64.20
21340;DHT22;10828;47.064;15.422;2023-04-06T14:15:35;15.90;63.40
21340;DHT22;10828;47.064;15.422;2023-04-06T14:18:02;16.50;65.20
21340;DHT22;10828;47.064;15.422;2023-04-06T14:20:30;17.10;63.60
21340;DHT22;10828;47.064;15.422;2023-04-06T14:23:02;17.30;63.80
21340;DHT22;10828;47.064;15.422;2023-04-06T14:25:30;17.70;62.70
21340;DHT22;10828;47.064;15.422;2023-04-06T14:28:00;17.80;62.40
21340;DHT22;10828;47.064;15.422;2023-04-06T14:30:30;17.90;62.90
21340;DHT22;10828;47.064;15.422;2023-04-06T14:33:00;17.60;62.90
21340;DHT22;10828;47.064;15.422;2023-04-06T14:35:27;17.70;62.20
21340;DHT22;10828;47.064;15.422;2023-04-06T14:37:53;17.30;62.70
21340;DHT22;10828;47.064;15.422;2023-04-06T14:40:20;16.80;62.90
21340;DHT22;10828;47.064;15.422;2023-04-06T14:42:52;16.20;63.30
21340;DHT22;10828;47.064;15.422;2023-04-06T14:45:22;15.90;64.70
21340;DHT22;10828;47.064;15.422;2023-04-06T14:47:49;15.80;64.50
21340;DHT22;10828;47.064;15.422;2023-04-06T14:50:15;15.90;64.60
21340;DHT22;10828;47.064;15.422;2023-04-06T14:52:48;16.00;64.40
21340;DHT22;10828;47.064;15.422;2023-04-06T14:55:20;15.00;64.90
21340;DHT22;10828;47.064;15.422;2023-04-06T14:57:47;15.10;66.70
21340;DHT22;10828;47.064;15.422;2023-04-06T15:00:13;15.10;65.10
21340;DHT22;10828;47.064;15.422;2023-04-06T15:02:39;15.10;65.60
21340;DHT22;10828;47.064;15.422;2023-04-06T15:05:06;15.20;66.30
21340;DHT22;10828;47.064;15.422;2023-04-06T15:07:31;15.00;65.50
21340;DHT22;10828;47.064;15.422;2023-04-06T15:10:00;14.90;66.70
21340;DHT22;10828;47.064;15.422;2023-04-06T15:12:30;15.00;66.90
21340;DHT22;10828;47.064;15.422;2023-04-06T15:15:01;14.90;65.30
21340;DHT22;10828;47.064;15.422;2023-04-06T15:17:33;14.50;66.10
21340;DHT22;10828;47.064;15.422;2023-04-06T15:19:58;14.50;67.10
21340;DHT22;10828;47.064;15.422;2023-04-06T15:22:24;14.50;66.80
21340;DHT22;10828;47.064;15.422;2023-04-06T15:24:50;14.80;66.70
21340;DHT22;10828;47.064;15.422;2023-04-06T15:27:16;14.80;66.20
21340;DHT22;10828;47.064;15.422;2023-04-06T15:29:42;14.40;66.90
21340;DHT22;10828;47.064;15.422;2023-04-06T15:32:12;14.20;66.60
21340;DHT22;10828;47.064;15.422;2023-04-06T15:34:38;14.00;67.30
21340;DHT22;10828;47.064;15.422;2023-04-06T15:37:05;13.80;67.40